Time;durP1;ratioP1;P1;durP2;ratioP2;P2;SDS_P1;SDS_P2;PMS_P1;PMS_P2;Temp;Humidity;BMP_temperature;BMP_pressure;BME280_temperature;BME280_humidity;BME280_pressure;Samples;Min_cycle;Max_cycle;Signal;HPM_P1;HPM_P2
2024/04/08 00:02:26;;;;;;;1.73;1.20;;;;;;;18.22;62.05;98365.63;5091503;28;41899;-80
2024/04/08 00:04:53;;;;;;;2.53;1.20;;;;;;;18.16;62.22;98360.91;5091662;28;39488;-80
2024/04/08 00:07:20;;;;;;;2.43;1.40;;;;;;;18.26;61.99;98372.38;5074430;28;43573;-79
2024/04/08 00:09:47;;;;;;;2.47;1.43;;;;;;;18.19;62.87;98365.94;5074328;28;43282;-79
2024/04/08 00:12:14;;;;;;;3.03;1.70;;;;;;;18.21;62.75;98369.28;5091408;28;42690;-80
2024/04/08 00:14:42;;;;;;;1.90;1.60;;;;;;;18.21;62.98;98368.44;5073955;28;39178;-81
2024/04/08 00:17:10;;;;;;;5.20;1.80;;;;;;;18.17;64.36;98367.94;5075100;28;41834;-80
2024/04/08 00:19:36;;;;;;;2.93;1.77;;;;;;;18.14;65.61;98357.53;5095535;28;43761;-81
2024/04/08 00:22:04;;;;;;;3.50;1.87;;;;;;;18.13;65.17;98361.19;5077606;28;42196;-80
2024/04/08 00:24:30;;;;;;;2.80;1.90;;;;;;;18.13;65.19;98361.19;5094464;28;39181;-80
2024/04/08 00:26:58;;;;;;;2.90;1.90;;;;;;;18.12;66.78;98354.16;5077685;28;42170;-81
2024/04/08 00:29:24;;;;;;;6.13;2.27;;;;;;;18.11;70.47;98338.22;5094383;28;42699;-81
2024/04/08 00:31:53;;;;;;;3.90;1.90;;;;;;;18.09;69.49;98358.97;5077726;28;42557;-80
2024/04/08 00:34:19;;;;;;;4.13;2.00;;;;;;;18.08;68.28;98366.19;5095506;28;40040;-80
2024/04/08 00:36:48;;;;;;;2.83;2.20;;;;;;;18.08;68.22;98358.13;5094602;28;43770;-80
2024/04/08 00:39:15;;;;;;;4.53;2.30;;;;;;;18.06;69.80;98360.13;5077252;28;42516;-80
2024/04/08 00:41:42;;;;;;;3.50;2.30;;;;;;;18.05;71.22;98342.34;5095711;28;42366;-79
2024/04/08 00:44:09;;;;;;;3.03;2.00;;;;;;;18.01;70.91;98348.22;5094393;28;40393;-80
2024/04/08 00:46:37;;;;;;;5.23;2.50;;;;;;;17.65;74.10;98275.94;5095321;28;40811;-80
2024/04/08 00:49:05;;;;;;;7.43;2.33;;;;;;;17.94;73.20;98330.06;5077407;28;44494;-81
2024/04/08 00:51:33;;;;;;;4.67;2.43;;;;;;;17.89;72.01;98305.59;5094834;28;41701;-81
2024/04/08 00:54:02;;;;;;;4.27;2.33;;;;;;;17.94;73.83;98302.41;5094406;28;40108;-80
2024/04/08 00:56:30;;;;;;;4.30;2.30;;;;;;;17.81;72.44;98280.56;5094550;28;41679;-81
2024/04/08 00:58:56;;;;;;;5.23;2.10;;;;;;;17.89;73.35;98299.38;5077114;28;41757;-81
2024/04/08 01:01:25;;;;;;;5.30;2.27;;;;;;;17.80;72.46;98278.91;5094173;28;41043;-81
2024/04/08 01:03:53;;;;;;;5.33;2.43;;;;;;;17.80;72.79;98273.53;5077170;28;38761;-81
2024/04/08 01:06:22;;;;;;;3.10;1.80;;;;;;;17.93;72.46;98295.38;5060765;28;41267;-80
2024/04/08 01:08:49;;;;;;;7.37;2.57;;;;;;;17.87;71.91;98274.59;5094904;28;43713;-81
2024/04/08 01:11:17;;;;;;;3.50;1.90;;;;;;;17.88;71.54;98266.41;5095418;28;42244;-80
2024/04/08 01:13:43;;;;;;;2.03;1.60;;;;;;;17.92;70.71;98274.97;5093777;28;39040;-81
2024/04/08 01:16:11;;;;;;;3.37;2.00;;;;;;;18.02;70.13;98294.47;5095044;28;42536;-80
2024/04/08 01:18:38;;;;;;;5.47;1.70;;;;;;;17.92;69.81;98283.00;5093945;28;44012;-80
2024/04/08 01:21:06;;;;;;;1.97;1.77;;;;;;;17.83;70.22;98273.19;5094050;28;42386;-80
2024/04/08 01:23:37;;;;;;;3.47;1.70;;;;;;;17.95;70.34;98299.59;5093653;28;38804;-80
2024/04/08 01:26:05;;;;;;;3.00;1.83;;;;;;;17.86;69.84;98303.22;5093745;28;41959;-80
2024/04/08 01:28:31;;;;;;;3.13;1.60;;;;;;;17.88;69.91;98308.41;5093345;28;43188;-81
2024/04/08 01:31:00;;;;;;;3.13;1.50;;;;;;;17.83;69.29;98300.00;5076411;28;41188;-79
2024/04/08 01:33:26;;;;;;;1.47;1.37;;;;;;;17.77;68.75;98295.28;5093570;28;41184;-81
2024/04/08 01:35:56;;;;;;;2.70;1.50;;;;;;;17.78;68.80;98305.84;5092956;28;41586;-80
2024/04/08 01:38:23;;;;;;;1.60;1.30;;;;;;;17.75;68.37;98305.28;5076971;28;42107;-80
2024/04/08 01:40:52;;;;;;;2.30;1.60;;;;;;;17.71;69.06;98317.28;5093608;28;42175;-80
2024/04/08 01:43:18;;;;;;;1.87;1.60;;;;;;;17.67;68.93;98315.94;5094844;28;39851;-80
2024/04/08 01:45:46;;;;;;;3.67;1.40;;;;;;;17.63;69.22;98310.03;5076003;28;40751;-80
2024/04/08 01:48:13;;;;;;;2.60;1.70;;;;;;;17.53;70.18;98294.03;5093489;28;43010;-79
2024/04/08 01:50:40;;;;;;;2.83;1.70;;;;;;;17.57;70.33;98303.41;5093075;28;42146;-80
2024/04/08 01:53:07;;;;;;;2.50;1.50;;;;;;;17.55;69.59;98313.47;5093699;28;39905;-80
2024/04/08 01:55:34;;;;;;;1.40;1.30;;;;;;;17.52;69.59;98310.25;5076063;28;41381;-79
2024/04/08 01:58:03;;;;;;;3.23;1.90;;;;;;;17.55;69.66;98308.09;5076344;28;41671;-80
2024/04/08 02:00:30;;;;;;;2.83;1.47;;;;;;;17.53;69.96;98299.38;5092680;28;41101;-80
2024/04/08 02:02:57;;;;;;;2.03;1.30;;;;;;;17.54;69.94;98313.63;5094318;28;40496;-80
2024/04/08 02:05:24;;;;;;;3.10;1.80;;;;;;;17.52;69.85;98319.13;5092987;28;41719;-80
2024/04/08 02:07:51;;;;;;;2.13;1.70;;;;;;;17.51;70.43;98312.06;5075977;28;42154;-81
2024/04/08 02:10:19;;;;;;;3.37;1.80;;;;;;;17.50;70.25;98313.06;5094152;28;42408;-79
2024/04/08 02:12:46;;;;;;;2.57;2.03;;;;;;;17.39;70.91;98286.53;5093088;28;38886;-80
2024/04/08 02:15:15;;;;;;;2.07;1.80;;;;;;;17.46;71.64;98300.97;5076024;28;40966;-80
2024/04/08 02:17:42;;;;;;;3.40;2.07;;;;;;;17.37;72.50;98282.31;5076274;28;43081;-80
2024/04/08 02:20:10;;;;;;;4.90;2.40;;;;;;;17.43;72.27;98293.25;5095932;28;41332;-82
2024/04/08 02:22:37;;;;;;;3.57;2.00;;;;;;;17.43;71.88;98303.13;5099826;28;39879;-81
2024/04/08 02:25:04;;;;;;;1.97;1.70;;;;;;;17.42;70.93;98304.97;5105632;28;43341;-80
2024/04/08 02:27:32;;;;;;;2.47;2.00;;;;;;;17.04;70.84;98243.69;5076001;28;42529;-81
2024/04/08 02:29:59;;;;;;;2.50;1.90;;;;;;;17.29;70.72;98288.44;5094440;28;42102;-81
2024/04/08 02:32:27;;;;;;;2.27;1.80;;;;;;;17.35;70.32;98306.56;5096099;28;40921;-81
2024/04/08 02:34:55;;;;;;;3.77;1.63;;;;;;;17.34;70.41;98309.38;5100498;28;41742;-80
2024/04/08 02:37:21;;;;;;;1.60;1.40;;;;;;;17.22;70.26;98298.91;5081524;28;43652;-80
2024/04/08 02:39:49;;;;;;;3.70;1.50;;;;;;;17.28;70.11;98315.34;5093747;28;43684;-81
2024/04/08 02:42:16;;;;;;;1.47;1.23;;;;;;;17.24;69.92;98318.31;5077324;28;38844;-81
2024/04/08 02:44:43;;;;;;;2.40;1.40;;;;;;;17.21;70.45;98315.09;5092958;28;42760;-80
2024/04/08 02:47:10;;;;;;;1.97;1.40;;;;;;;17.18;70.59;98305.53;5076117;28;42853;-80
2024/04/08 02:49:39;;;;;;;2.60;1.80;;;;;;;17.09;70.68;98300.25;5092482;28;43229;-80
2024/04/08 02:52:06;;;;;;;3.53;1.40;;;;;;;17.08;70.46;98306.59;5075663;28;39042;-80
2024/04/08 02:54:34;;;;;;;2.83;1.80;;;;;;;17.13;70.12;98328.41;5092379;28;42540;-80
2024/04/08 02:57:00;;;;;;;2.70;1.83;;;;;;;17.12;70.39;98316.00;5093785;28;43504;-80
2024/04/08 02:59:27;;;;;;;2.03;1.50;;;;;;;17.09;70.23;98305.59;5091883;28;42047;-80
2024/04/08 03:01:54;;;;;;;3.70;2.23;;;;;;;17.06;70.83;98297.91;5093794;28;40083;-80
2024/04/08 03:04:21;;;;;;;3.37;1.60;;;;;;;16.90;71.85;98279.81;5092136;28;41835;-80
2024/04/08 03:06:49;;;;;;;2.90;1.77;;;;;;;16.93;71.40;98289.38;5093627;28;43761;-80
2024/04/08 03:09:17;;;;;;;3.07;1.73;;;;;;;16.99;71.57;98300.31;5074795;28;40940;-81
2024/04/08 03:11:44;;;;;;;2.50;1.53;;;;;;;17.01;71.55;98305.50;5092480;28;39938;-81
2024/04/08 03:14:11;;;;;;;2.17;1.53;;;;;;;17.00;71.21;98314.53;5074914;28;41542;-80
2024/04/08 03:16:39;;;;;;;3.30;1.40;;;;;;;16.97;70.94;98313.00;5093279;28;43275;-81
2024/04/08 03:19:06;;;;;;;2.30;1.40;;;;;;;16.92;71.11;98303.75;5075257;28;42339;-81
2024/04/08 03:21:32;;;;;;;2.17;1.50;;;;;;;17.00;70.85;98322.56;5093338;28;40011;-81
2024/04/08 03:24:02;;;;;;;2.40;1.30;;;;;;;16.98;71.38;98313.81;5091871;28;42804;-81
2024/04/08 03:26:28;;;;;;;1.90;1.43;;;;;;;16.90;71.05;98309.25;5091940;28;42888;-80
2024/04/08 03:28:56;;;;;;;2.43;1.50;;;;;;;16.98;71.25;98321.84;5092948;28;42274;-81
2024/04/08 03:31:22;;;;;;;4.67;1.50;;;;;;;16.92;70.67;98315.28;5092007;28;40699;-80
2024/04/08 03:33:50;;;;;;;2.17;1.73;;;;;;;16.89;70.97;98310.22;5074853;28;40838;-81
2024/04/08 03:36:16;;;;;;;3.47;1.90;;;;;;;16.94;70.94;98328.50;5074770;28;41894;-81
2024/04/08 03:38:44;;;;;;;3.10;1.93;;;;;;;16.88;71.53;98325.44;5092757;28;42601;-81
2024/04/08 03:41:13;;;;;;;3.80;1.60;;;;;;;16.94;71.57;98345.38;5075065;28;38842;-80
2024/04/08 03:43:42;;;;;;;1.53;1.43;;;;;;;16.91;71.14;98345.69;5074773;28;42321;-81
2024/04/08 03:46:09;;;;;;;1.80;1.67;;;;;;;16.92;71.43;98338.50;5091636;28;42947;-80
2024/04/08 03:48:37;;;;;;;3.47;1.93;;;;;;;16.93;71.42;98341.03;5091782;28;42444;-81
2024/04/08 03:51:07;;;;;;;2.97;2.03;;;;;;;16.62;72.44;98287.00;5092706;28;39907;-80
2024/04/08 03:53:38;;;;;;;3.50;2.00;;;;;;;16.85;72.86;98324.88;5078292;28;41573;-81
2024/04/08 03:56:07;;;;;;;6.03;2.50;;;;;;;16.63;73.96;98288.69;5078169;28;43116;-80
2024/04/08 03:58:38;;;;;;;3.77;2.40;;;;;;;16.92;75.47;98323.31;5095132;28;41927;-80
2024/04/08 04:01:06;;;;;;;3.83;2.20;;;;;;;16.93;74.85;98337.53;5094753;28;39176;-80
2024/04/08 04:03:35;;;;;;;4.20;2.00;;;;;;;16.94;74.58;98328.50;5094762;28;40675;-81
2024/04/08 04:06:01;;;;;;;3.57;2.43;;;;;;;16.85;76.48;98309.66;5077616;28;43251;-80
2024/04/08 04:08:29;;;;;;;3.73;2.80;;;;;;;16.93;76.42;98326.81;5095965;28;42195;-81
2024/04/08 04:10:56;;;;;;;2.83;2.30;;;;;;;16.88;76.70;98313.88;5096235;28;39751;-80
2024/04/08 04:13:24;;;;;;;4.27;2.00;;;;;;;16.90;75.82;98319.94;5095099;28;41720;-81
2024/04/08 04:15:53;;;;;;;2.83;1.73;;;;;;;16.94;75.31;98323.16;5077318;28;42963;-80
2024/04/08 04:18:21;;;;;;;4.17;2.20;;;;;;;16.88;74.69;98308.53;5094231;28;41425;-81
2024/04/08 04:20:47;;;;;;;1.87;1.60;;;;;;;16.85;74.45;98309.66;5094542;28;39810;-80
2024/04/08 04:23:16;;;;;;;2.40;1.63;;;;;;;16.95;73.90;98316.78;5095831;28;41773;-80
2024/04/08 04:25:42;;;;;;;3.47;1.67;;;;;;;16.86;74.14;98316.72;5077593;28;43099;-80
2024/04/08 04:28:10;;;;;;;1.43;1.33;;;;;;;16.84;73.84;98307.97;5077543;28;41245;-80
2024/04/08 04:30:36;;;;;;;2.20;1.80;;;;;;;16.86;73.70;98314.03;5077116;28;40214;-81
2024/04/08 04:33:05;;;;;;;3.80;1.80;;;;;;;16.82;73.59;98309.13;5077259;28;42398;-80
2024/04/08 04:35:32;;;;;;;2.20;1.80;;;;;;;16.91;73.42;98334.16;5093726;28;41827;-81
2024/04/08 04:37:59;;;;;;;2.67;1.60;;;;;;;16.87;73.79;98337.13;5077529;28;41092;-81
2024/04/08 04:40:27;;;;;;;2.77;1.43;;;;;;;16.68;73.56;98323.00;5094016;28;41153;-80
2024/04/08 04:42:54;;;;;;;3.40;1.50;;;;;;;16.82;73.52;98358.09;5077242;28;42092;-81
2024/04/08 04:45:21;;;;;;;2.73;1.80;;;;;;;16.62;73.46;98323.53;5093693;28;41890;-80
2024/04/08 04:47:48;;;;;;;1.83;1.67;;;;;;;16.76;73.32;98353.34;5094356;28;42418;-81
2024/04/08 04:50:16;;;;;;;1.63;1.53;;;;;;;16.74;73.30;98349.13;5093865;28;40111;-81
2024/04/08 04:52:44;;;;;;;2.10;1.60;;;;;;;16.73;72.93;98359.00;5077495;28;40789;-81
2024/04/08 04:55:11;;;;;;;1.83;1.63;;;;;;;16.64;72.96;98343.00;5094926;28;42625;-81
2024/04/08 04:57:38;;;;;;;1.83;1.50;;;;;;;16.71;72.81;98360.97;5094489;28;42993;-81
2024/04/08 05:00:06;;;;;;;3.00;2.00;;;;;;;16.64;72.90;98353.69;5076867;28;39265;-81
2024/04/08 05:02:33;;;;;;;2.37;1.40;;;;;;;16.60;72.60;98358.44;5093806;28;40786;-81
2024/04/08 05:05:00;;;;;;;3.53;1.90;;;;;;;16.65;72.66;98350.88;5076569;28;41636;-81
2024/04/08 05:07:28;;;;;;;3.00;2.03;;;;;;;16.73;73.53;98369.69;5093935;28;44387;-81
2024/04/08 05:09:57;;;;;;;2.07;1.87;;;;;;;16.59;73.24;98359.41;5094953;28;40910;-81
2024/04/08 05:12:25;;;;;;;1.80;1.60;;;;;;;16.42;73.26;98328.13;5094011;28;41823;-81
2024/04/08 05:14:51;;;;;;;3.53;2.47;;;;;;;16.67;73.13;98364.09;5076785;28;41658;-82
2024/04/08 05:17:19;;;;;;;5.47;2.20;;;;;;;16.66;73.35;98357.91;5095045;28;42283;-81
2024/04/08 05:19:45;;;;;;;4.00;2.13;;;;;;;16.71;73.32;98354.78;5094732;28;39965;-81
2024/04/08 05:22:16;;;;;;;3.17;1.70;;;;;;;16.80;73.16;98375.31;5095020;28;41905;-82
2024/04/08 05:24:44;;;;;;;2.40;1.87;;;;;;;16.83;73.05;98378.50;5092894;28;44241;-81
2024/04/08 05:27:12;;;;;;;1.93;1.50;;;;;;;16.85;72.80;98373.00;5112476;28;42732;-80
2024/04/08 05:29:39;;;;;;;1.77;1.63;;;;;;;16.97;73.55;98376.34;5094918;28;39976;-81
2024/04/08 05:32:07;;;;;;;2.90;1.97;;;;;;;17.01;73.30;98388.44;5095925;28;41782;-81
2024/04/08 05:34:33;;;;;;;2.77;2.00;;;;;;;17.02;73.33;98385.63;5076810;28;42721;-81
2024/04/08 05:37:01;;;;;;;2.90;1.43;;;;;;;17.04;73.29;98390.84;5095154;28;43564;-81
2024/04/08 05:39:27;;;;;;;2.37;1.90;;;;;;;16.94;73.18;98371.31;5093553;28;39094;-80
2024/04/08 05:41:56;;;;;;;3.10;1.70;;;;;;;16.96;73.21;98369.31;5077218;28;41950;-80
2024/04/08 05:44:23;;;;;;;3.50;1.83;;;;;;;17.13;73.14;98379.22;5076223;28;41674;-81
2024/04/08 05:46:50;;;;;;;3.03;2.23;;;;;;;17.22;73.37;98381.84;5076704;28;42793;-80
2024/04/08 05:49:16;;;;;;;2.77;1.77;;;;;;;17.29;72.56;98366.06;5093208;28;41122;-80
2024/04/08 05:51:44;;;;;;;3.07;2.27;;;;;;;17.47;72.60;98380.28;5076565;28;41684;-80
2024/04/08 05:54:10;;;;;;;2.30;2.10;;;;;;;17.50;72.39;98363.09;5076296;28;42546;-80
2024/04/08 05:56:38;;;;;;;2.67;1.90;;;;;;;17.62;72.38;98355.69;5076268;28;42143;-80
2024/04/08 05:59:06;;;;;;;3.03;1.80;;;;;;;17.77;72.36;98359.56;5076137;28;40003;-80
2024/04/08 06:01:35;;;;;;;3.47;2.37;;;;;;;17.97;72.54;98354.84;5094448;28;41806;-80
2024/04/08 06:04:03;;;;;;;2.83;2.27;;;;;;;18.12;72.19;98359.53;5092885;28;43418;-80
2024/04/08 06:06:30;;;;;;;4.37;2.33;;;;;;;18.15;71.74;98337.78;5076281;28;41244;-80
2024/04/08 06:09:03;;;;;;;3.13;2.50;;;;;;;18.28;71.87;98343.56;5095480;28;39834;-81
2024/04/08 06:11:30;;;;;;;5.17;2.40;;;;;;;18.37;71.52;98339.09;5093398;28;42629;-84
2024/04/08 06:13:57;;;;;;;5.20;2.43;;;;;;;18.50;71.73;98366.34;5094114;28;43527;-83
2024/04/08 06:16:32;;;;;;;5.63;2.73;;;;;;;18.69;71.68;98376.03;5076825;28;42329;-84
2024/04/08 06:18:59;;;;;;;4.57;2.37;;;;;;;18.85;71.27;98376.13;5091287;28;39004;-81
2024/04/08 06:21:26;;;;;;;3.37;2.50;;;;;;;19.02;70.50;98374.38;5074811;28;40789;-82
2024/04/08 06:23:53;;;;;;;3.20;2.17;;;;;;;18.94;70.11;98324.16;5090923;28;43604;-80
2024/04/08 06:26:20;;;;;;;4.43;2.17;;;;;;;19.40;69.94;98383.75;5077942;28;41529;-80
2024/04/08 06:28:47;;;;;;;4.43;2.50;;;;;;;19.52;69.30;98382.47;5092452;28;40009;-80
2024/04/08 06:31:14;;;;;;;4.43;2.67;;;;;;;19.58;69.26;98380.97;5093611;28;41628;-79
2024/04/08 06:33:42;;;;;;;4.40;2.87;;;;;;;19.58;68.59;98363.00;5093353;28;42545;-79
2024/04/08 06:36:09;;;;;;;3.83;2.33;;;;;;;19.77;69.01;98385.22;5075036;28;41784;-79
2024/04/08 06:38:36;;;;;;;3.57;2.37;;;;;;;19.88;68.49;98371.47;5109102;28;40359;-81
2024/04/08 06:41:04;;;;;;;4.03;2.87;;;;;;;19.99;68.45;98374.66;5091682;28;41156;-79
2024/04/08 06:43:30;;;;;;;4.23;2.40;;;;;;;20.13;68.46;98378.53;5091927;28;43042;-80
2024/04/08 06:45:58;;;;;;;5.50;2.57;;;;;;;20.30;67.50;98380.19;5074742;28;41494;-79
2024/04/08 06:48:25;;;;;;;4.10;2.67;;;;;;;20.35;66.65;98380.56;5091884;28;39824;-79
2024/04/08 06:50:54;;;;;;;5.53;2.73;;;;;;;20.56;65.94;98396.16;5091540;28;41767;-84
2024/04/08 06:53:22;;;;;;;5.93;2.57;;;;;;;20.74;65.97;98396.00;5093568;28;42683;-82
2024/04/08 06:55:49;;;;;;;4.40;2.53;;;;;;;20.89;65.17;98399.66;5076398;28;41445;-83
2024/04/08 06:58:19;;;;;;;5.47;2.90;;;;;;;21.08;65.15;98398.41;5075133;28;40137;-77
2024/04/08 07:00:47;;;;;;;3.70;2.50;;;;;;;21.28;64.00;98393.47;5082400;28;41645;-80
2024/04/08 07:03:13;;;;;;;5.70;2.30;;;;;;;21.49;62.27;98407.22;5094117;28;43248;-78
2024/04/08 07:05:41;;;;;;;5.10;2.20;;;;;;;21.71;61.81;98406.41;5091338;28;41298;-78
2024/04/08 07:08:09;;;;;;;4.30;2.40;;;;;;;21.96;61.41;98399.00;5093255;28;39802;-78
2024/04/08 07:10:37;;;;;;;7.73;3.23;;;;;;;22.25;59.68;98409.13;5092083;28;41759;-79
2024/04/08 07:13:03;;;;;;;5.33;2.23;;;;;;;22.50;56.96;98417.84;5091535;28;41567;-79
2024/04/08 07:15:31;;;;;;;5.60;2.37;;;;;;;22.76;57.38;98417.44;5092766;28;42357;-78
2024/04/08 07:17:58;;;;;;;7.20;2.17;;;;;;;23.03;56.74;98424.94;5092133;28;40381;-77
2024/04/08 07:20:25;;;;;;;6.27;2.40;;;;;;;23.07;54.94;98401.94;5074411;28;41498;-81
2024/04/08 07:22:51;;;;;;;3.73;2.00;;;;;;;23.22;54.60;98429.81;5091613;28;41784;-78
2024/04/08 07:25:20;;;;;;;5.30;2.30;;;;;;;23.44;53.97;98424.47;5091506;28;43207;-80
2024/04/08 07:27:47;;;;;;;3.33;1.93;;;;;;;23.74;53.37;98428.81;5091391;28;38968;-80
2024/04/08 07:30:15;;;;;;;3.23;1.63;;;;;;;24.07;52.65;98428.38;5092759;28;42671;-79
2024/04/08 07:32:41;;;;;;;3.67;1.80;;;;;;;24.32;52.22;98425.13;5070462;28;42852;-80
2024/04/08 07:35:08;;;;;;;3.37;1.80;;;;;;;24.51;51.19;98431.75;5071418;28;42116;-78
2024/04/08 07:39:28;;;;;;;6.80;1.73;;;;;;;24.41;50.46;98425.81;5509877;26;20686;-78
2024/04/08 07:41:56;;;;;;;7.60;2.00;;;;;;;24.48;50.02;98448.38;5510146;26;40081;-78
2024/04/08 07:44:25;;;;;;;3.80;1.90;;;;;;;24.68;49.99;98426.91;5511120;26;42519;-78
2024/04/08 07:46:52;;;;;;;6.27;2.07;;;;;;;25.10;51.05;98417.84;5509806;26;42717;-78
2024/04/08 07:49:21;;;;;;;4.83;2.20;;;;;;;25.13;48.50;98414.75;5508777;26;42314;-80
2024/04/08 07:51:48;;;;;;;5.87;2.23;;;;;;;25.61;48.51;98439.22;5477724;26;40105;-79
2024/04/08 07:54:17;;;;;;;7.30;1.83;;;;;;;26.07;46.35;98442.13;5510524;26;41995;-77
2024/04/08 07:56:46;;;;;;;4.20;2.23;;;;;;;26.69;46.46;98449.13;5504506;26;44103;-78
2024/04/08 07:59:15;;;;;;;4.00;1.77;;;;;;;27.03;46.97;98407.34;5471293;26;41867;-78
2024/04/08 08:01:41;;;;;;;3.13;1.97;;;;;;;27.64;44.00;98439.63;5475345;26;40190;-79
2024/04/08 08:04:10;;;;;;;7.70;1.95;;;;;;;27.98;42.29;98461.03;5509732;26;42657;-79
2024/04/08 08:06:38;;;;;;;4.90;1.90;;;;;;;28.08;42.32;98447.78;5510133;26;43888;-79
2024/04/08 08:09:07;;;;;;;4.07;1.70;;;;;;;28.67;42.70;98438.44;5509719;26;43212;-79
2024/04/08 08:11:37;;;;;;;2.55;1.50;;;;;;;29.36;39.78;98459.22;5508405;26;40675;-78
2024/04/08 08:14:09;;;;;;;4.32;1.50;;;;;;;29.77;39.61;98468.66;5509881;26;41864;-79
2024/04/08 08:16:38;;;;;;;4.85;1.95;;;;;;;30.20;38.93;98465.81;5510139;26;42623;-81
2024/04/08 08:19:08;;;;;;;6.05;2.00;;;;;;;30.71;38.83;98479.81;5507804;26;42112;-79
2024/04/08 08:21:37;;;;;;;5.65;1.90;;;;;;;31.15;37.85;98495.97;5510301;26;41516;-78
2024/04/08 08:24:06;;;;;;;4.90;2.25;;;;;;;31.52;35.76;98486.44;5509304;26;42847;-79
2024/04/08 08:26:36;;;;;;;6.03;1.85;;;;;;;32.21;35.82;98489.31;5508371;26;41515;-80
2024/04/08 08:29:05;;;;;;;4.35;1.92;;;;;;;32.65;34.58;98491.25;5508715;26;42069;-80
2024/04/08 08:31:37;;;;;;;4.32;1.70;;;;;;;32.91;34.09;98495.28;5512784;26;40024;-77
2024/04/08 08:34:06;;;;;;;3.42;1.60;;;;;;;32.94;34.24;98474.78;5508195;26;41907;-80
2024/04/08 08:36:32;;;;;;;3.47;1.88;;;;;;;33.27;34.05;98488.50;5477857;26;41783;-85
2024/04/08 08:39:02;;;;;;;6.32;1.42;;;;;;;33.64;32.89;98483.28;5507978;26;41917;-81
2024/04/08 08:41:31;;;;;;;3.72;2.00;;;;;;;34.30;32.05;98508.09;5511182;26;41196;-85
2024/04/08 08:44:01;;;;;;;8.25;4.40;;;;;;;34.70;31.02;98507.69;5492706;26;42979;-83
2024/04/08 08:46:28;;;;;;;7.40;4.88;;;;;;;35.17;30.91;98492.19;5442001;26;42783;-83
2024/04/08 08:49:03;;;;;;;5.40;2.47;;;;;;;35.80;28.89;98515.25;5480588;26;41959;-80
2024/04/08 08:51:31;;;;;;;6.47;1.92;;;;;;;36.29;28.67;98509.41;5492770;26;40457;-80
2024/04/08 08:54:01;;;;;;;4.22;1.27;;;;;;;36.75;27.52;98513.16;5491836;26;43275;-82
2024/04/08 08:56:29;;;;;;;4.50;1.52;;;;;;;37.29;27.65;98490.56;5492358;26;41700;-81
2024/04/08 08:59:01;;;;;;;4.70;1.70;;;;;;;38.18;26.61;98513.88;5491519;26;43338;-82
2024/04/08 09:01:30;;;;;;;6.03;1.90;;;;;;;38.73;25.66;98502.50;5494481;26;41233;-81
2024/04/08 09:04:03;;;;;;;4.18;2.00;;;;;;;39.63;24.65;98523.41;5491588;26;41962;-81
2024/04/08 09:06:30;;;;;;;3.30;1.48;;;;;;;40.55;23.66;98524.81;5493807;26;42796;-81
2024/04/08 09:08:59;;;;;;;3.50;1.33;;;;;;;41.20;23.01;98522.22;5492017;26;41321;-84
2024/04/08 09:11:26;;;;;;;3.88;1.50;;;;;;;41.50;23.61;98500.56;5462216;26;40384;-82
2024/04/08 09:14:08;;;;;;;5.28;1.50;;;;;;;41.36;22.89;98506.09;5493335;26;41591;-80
2024/04/08 09:16:34;;;;;;;5.45;1.52;;;;;;;41.38;22.43;98512.19;5485409;26;44007;-80
2024/04/08 09:19:06;;;;;;;4.15;1.55;;;;;;;41.27;22.60;98496.00;5455302;26;43369;-82
2024/04/08 09:21:34;;;;;;;3.35;1.60;;;;;;;41.16;22.84;98512.84;5486594;26;38880;-78
2024/04/08 09:24:05;;;;;;;3.60;1.30;;;;;;;40.93;22.74;98507.38;5455411;26;42519;-80
2024/04/08 09:26:32;;;;;;;9.43;1.63;;;;;;;40.63;23.51;98492.78;5490216;26;41737;-86
2024/04/08 09:29:01;;;;;;;3.78;1.60;;;;;;;40.25;23.44;98477.22;5492084;26;41949;-84
2024/04/08 09:31:28;;;;;;;5.68;1.75;;;;;;;40.17;24.04;98473.16;5493319;26;39999;-80
2024/04/08 09:33:58;;;;;;;3.47;1.38;;;;;;;40.31;23.60;98487.16;5493310;26;41698;-85
2024/04/08 09:36:28;;;;;;;5.57;2.00;;;;;;;40.26;22.34;98498.28;5492942;26;43064;-80
2024/04/08 09:39:01;;;;;;;4.68;1.95;;;;;;;40.23;22.62;98499.72;5491348;26;41116;-81
2024/04/08 09:41:29;;;;;;;3.22;1.38;;;;;;;40.20;22.84;98467.00;5491850;26;39024;-84
2024/04/08 09:44:02;;;;;;;4.20;1.70;;;;;;;39.94;22.87;98485.13;5491335;26;40384;-84
2024/04/08 09:46:28;;;;;;;4.00;1.70;;;;;;;39.63;23.25;98488.19;5491246;26;41831;-82
2024/04/08 09:48:57;;;;;;;2.42;1.58;;;;;;;39.58;23.43;98488.25;5491473;26;42032;-80
2024/04/08 09:51:28;;;;;;;5.65;1.92;;;;;;;39.18;23.73;98467.28;5491606;26;40366;-82
2024/04/08 09:53:57;;;;;;;3.05;1.42;;;;;;;39.01;23.17;98489.03;5491090;26;40679;-80
2024/04/08 09:56:29;;;;;;;4.53;1.77;;;;;;;38.69;23.32;98482.06;5491139;26;43826;-81
2024/04/08 09:59:08;;;;;;;3.65;1.92;;;;;;;38.07;23.74;98475.16;5492681;26;42378;-79
2024/04/08 10:01:37;;;;;;;5.82;1.65;;;;;;;37.73;24.00;98452.06;5460648;26;39557;-81
2024/04/08 10:04:14;;;;;;;4.85;2.00;;;;;;;37.64;24.25;98456.53;5492144;26;40697;-81
2024/04/08 10:06:46;;;;;;;7.60;1.75;;;;;;;37.14;24.04;98460.97;5461291;26;41793;-85
2024/04/08 10:09:15;;;;;;;5.22;1.83;;;;;;;36.52;25.26;98451.00;5491952;26;41981;-82
2024/04/08 10:11:45;;;;;;;5.35;1.90;;;;;;;36.05;25.18;98447.53;5493496;26;41131;-82
2024/04/08 10:14:20;;;;;;;5.63;1.90;;;;;;;35.80;25.99;98462.88;5492030;26;43109;-84
2024/04/08 10:16:48;;;;;;;5.35;2.20;;;;;;;36.07;26.50;98453.63;5493092;26;42646;-82
2024/04/08 10:19:17;;;;;;;7.63;1.90;;;;;;;36.06;26.42;98446.44;5491634;26;43136;-82
2024/04/08 10:21:47;;;;;;;6.07;1.65;;;;;;;36.17;26.54;98442.63;5491796;26;41386;-82
2024/04/08 10:24:30;;;;;;;4.88;2.20;;;;;;;36.30;25.04;98439.38;5492050;26;40925;-83
2024/04/08 10:27:04;;;;;;;7.20;1.80;;;;;;;36.47;26.24;98434.44;5460872;26;41688;-83
2024/04/08 10:29:35;;;;;;;5.28;2.17;;;;;;;36.33;23.62;98455.38;5491703;26;43168;-82
2024/04/08 10:32:03;;;;;;;3.35;1.45;;;;;;;36.67;23.43;98434.47;5492785;26;41352;-80
2024/04/08 10:34:32;;;;;;;8.15;2.40;;;;;;;37.77;23.64;98430.22;5491382;26;41670;-82
2024/04/08 10:37:01;;;;;;;3.13;1.58;;;;;;;38.29;22.06;98460.97;5485716;26;42846;-79
2024/04/08 10:39:30;;;;;;;8.45;2.00;;;;;;;38.74;22.54;98461.81;5456094;26;42040;-79
2024/04/08 10:41:58;;;;;;;5.57;1.95;;;;;;;38.91;21.61;98444.78;5459036;26;40946;-80
2024/04/08 10:44:31;;;;;;;4.78;1.65;;;;;;;38.90;21.92;98460.56;5491099;26;43465;-79
2024/04/08 10:46:58;;;;;;;5.53;1.48;;;;;;;39.01;22.25;98444.72;5492204;26;43534;-80
2024/04/08 10:49:27;;;;;;;4.45;1.50;;;;;;;39.50;20.80;98464.78;5492826;26;42087;-80
2024/04/08 10:51:54;;;;;;;4.85;1.95;;;;;;;39.61;21.34;98436.94;5493177;26;40054;-82
2024/04/08 10:54:25;;;;;;;3.58;1.42;;;;;;;39.56;21.20;98439.78;5491117;26;43039;-87
2024/04/08 10:56:52;;;;;;;4.43;1.58;;;;;;;39.77;20.93;98446.72;5460655;26;43178;-83
2024/04/08 10:59:21;;;;;;;5.35;1.60;;;;;;;39.96;21.50;98450.38;5459127;26;43093;-84
2024/04/08 11:01:48;;;;;;;6.00;2.30;;;;;;;39.76;20.93;98431.22;5454873;26;38623;-85
2024/04/08 11:04:18;;;;;;;4.25;1.35;;;;;;;39.66;22.54;98423.03;5481898;26;41261;-79
2024/04/08 11:06:44;;;;;;;5.90;1.80;;;;;;;39.79;22.19;98438.94;5490700;26;42533;-83
2024/04/08 11:09:14;;;;;;;6.82;1.67;;;;;;;39.85;22.34;98404.50;5466077;26;42244;-80
2024/04/08 11:11:43;;;;;;;4.13;1.92;;;;;;;40.56;22.46;98436.81;5453454;26;41275;-83
2024/04/08 11:14:12;;;;;;;5.72;1.70;;;;;;;40.68;21.68;98442.72;5475694;26;41992;-80
2024/04/08 11:16:39;;;;;;;2.85;1.63;;;;;;;40.38;20.78;98445.97;5491941;26;43838;-81
2024/04/08 11:19:08;;;;;;;5.13;1.52;;;;;;;40.72;21.06;98434.66;5473702;26;42245;-81
2024/04/08 11:21:34;;;;;;;7.00;2.20;;;;;;;41.16;20.68;98423.91;5454526;26;40160;-81
2024/04/08 11:24:04;;;;;;;4.35;1.45;;;;;;;41.98;19.46;98447.38;5470150;26;43040;-80
2024/04/08 11:26:30;;;;;;;3.95;1.60;;;;;;;42.29;18.63;98451.97;5490543;26;43362;-84
2024/04/08 11:29:05;;;;;;;3.03;1.73;;;;;;;42.41;18.79;98420.03;5483005;26;43043;-80
2024/04/08 11:31:32;;;;;;;4.38;1.58;;;;;;;42.52;18.92;98438.97;5456676;26;39702;-82
2024/04/08 11:34:01;;;;;;;4.30;1.80;;;;;;;42.35;18.33;98435.97;5469177;26;42931;-80
2024/04/08 11:36:27;;;;;;;6.53;1.90;;;;;;;42.19;18.94;98434.66;5494660;26;43360;-83
2024/04/08 11:38:57;;;;;;;5.65;1.55;;;;;;;42.54;18.30;98447.78;5492158;26;42495;-79
2024/04/08 11:41:24;;;;;;;3.97;1.27;;;;;;;42.89;17.75;98459.25;5491308;26;39654;-80